createdAt,value
2023-03-11T00:00:07.907Z,0
2023-03-11T00:03:07.791Z,0
2023-03-11T00:06:07.809Z,0
2023-03-11T00:09:07.765Z,0
2023-03-11T00:12:07.853Z,0
2023-03-11T00:15:07.829Z,0
2023-03-11T00:18:08.356Z,0
2023-03-11T00:21:07.929Z,0
2023-03-11T00:24:08.046Z,0
2023-03-11T00:27:07.879Z,0
2023-03-11T00:30:07.848Z,0
2023-03-11T00:33:07.822Z,0
2023-03-11T00:36:07.988Z,0
2023-03-11T00:39:07.906Z,0
2023-03-11T00:42:07.827Z,0
2023-03-11T00:45:07.823Z,0
2023-03-11T00:48:07.787Z,0
2023-03-11T00:51:07.830Z,0
2023-03-11T00:54:07.738Z,0
2023-03-11T00:57:07.756Z,0
2023-03-11T01:00:07.919Z,0
2023-03-11T01:03:07.769Z,0
2023-03-11T01:06:07.860Z,0
2023-03-11T01:09:07.816Z,0
2023-03-11T01:12:07.855Z,0
2023-03-11T01:15:07.795Z,0
2023-03-11T01:18:07.911Z,0
2023-03-11T01:21:08.046Z,0
2023-03-11T01:24:07.819Z,0
2023-03-11T01:27:07.794Z,0
2023-03-11T01:30:07.827Z,0
2023-03-11T01:33:07.805Z,0
2023-03-11T01:36:08.166Z,0
2023-03-11T01:39:07.756Z,0
2023-03-11T01:42:07.768Z,0
2023-03-11T01:45:07.827Z,0
2023-03-11T01:48:07.818Z,0
2023-03-11T01:51:07.818Z,0
2023-03-11T01:54:07.863Z,0
2023-03-11T01:57:07.783Z,0
2023-03-11T02:00:07.844Z,0
2023-03-11T02:03:08.096Z,0
2023-03-11T02:06:07.963Z,0
2023-03-11T02:09:07.968Z,0
2023-03-11T02:12:07.799Z,0
2023-03-11T02:15:07.805Z,0
2023-03-11T02:18:07.894Z,0
2023-03-11T02:21:07.755Z,0
2023-03-11T02:24:07.984Z,0
2023-03-11T02:27:07.810Z,0
2023-03-11T02:30:07.899Z,0
2023-03-11T02:33:07.804Z,0
2023-03-11T02:36:08.106Z,0
2023-03-11T02:39:07.887Z,0
2023-03-11T02:42:07.882Z,0
2023-03-11T02:45:07.753Z,0
2023-03-11T02:48:07.782Z,0
2023-03-11T02:51:07.836Z,0
2023-03-11T02:54:07.966Z,0
2023-03-11T02:57:07.871Z,0
2023-03-11T03:00:07.961Z,0
2023-03-11T03:03:07.782Z,0
2023-03-11T03:06:07.808Z,0
2023-03-11T03:09:07.850Z,0
2023-03-11T03:12:07.928Z,0
2023-03-11T03:15:07.952Z,0
2023-03-11T03:18:07.941Z,0
2023-03-11T03:21:07.875Z,0
2023-03-11T03:24:07.894Z,0
2023-03-11T03:27:07.791Z,0
2023-03-11T03:30:07.762Z,0
2023-03-11T03:33:07.901Z,0
2023-03-11T03:36:08.035Z,0
2023-03-11T03:39:07.871Z,0
2023-03-11T03:42:07.797Z,0
2023-03-11T03:45:07.749Z,0
2023-03-11T03:48:07.790Z,0
2023-03-11T03:51:07.808Z,0
2023-03-11T03:54:07.756Z,0
2023-03-11T03:57:07.721Z,0
2023-03-11T04:00:08.084Z,0
2023-03-11T04:03:08.240Z,0
2023-03-11T04:06:07.810Z,0
2023-03-11T04:09:07.826Z,0
2023-03-11T04:12:07.815Z,0
2023-03-11T04:15:07.799Z,0
2023-03-11T04:18:07.966Z,0
2023-03-11T04:21:07.840Z,0
2023-03-11T04:24:07.856Z,0
2023-03-11T04:27:07.858Z,0
2023-03-11T04:30:07.906Z,0
2023-03-11T04:33:07.821Z,0
2023-03-11T04:36:08.035Z,0
2023-03-11T04:39:07.869Z,0
2023-03-11T04:42:10.808Z,0
2023-03-11T04:45:07.995Z,0
2023-03-11T04:48:07.838Z,0
2023-03-11T04:51:07.852Z,0
2023-03-11T04:54:07.899Z,0
2023-03-11T04:57:07.827Z,0
2023-03-11T05:00:08.046Z,0
2023-03-11T05:03:08.070Z,0
2023-03-11T05:06:07.942Z,0
2023-03-11T05:09:07.822Z,0
2023-03-11T05:12:07.780Z,0
2023-03-11T05:15:07.851Z,0
2023-03-11T05:18:07.857Z,0
2023-03-11T05:21:07.805Z,3
2023-03-11T05:24:07.852Z,3
2023-03-11T05:27:07.787Z,10
2023-03-11T05:30:07.892Z,13
2023-03-11T05:33:07.794Z,20
2023-03-11T05:36:08.124Z,30
2023-03-11T05:39:07.840Z,40
2023-03-11T05:42:07.819Z,53
2023-03-11T05:45:07.820Z,57
2023-03-11T05:48:07.857Z,67
2023-03-11T05:51:07.938Z,83
2023-03-11T05:54:07.940Z,113
2023-03-11T05:57:08.007Z,170
2023-03-11T06:00:07.932Z,210
2023-03-11T06:03:07.932Z,220
2023-03-11T06:06:07.845Z,207
2023-03-11T06:09:07.894Z,220
2023-03-11T06:12:07.827Z,237
2023-03-11T06:15:08.030Z,327
2023-03-11T06:18:07.868Z,373
2023-03-11T06:21:07.911Z,497
2023-03-11T06:24:07.963Z,810
2023-03-11T06:27:07.847Z,1030
2023-03-11T06:30:08.545Z,1117
2023-03-11T06:33:07.984Z,1177
2023-03-11T06:36:08.305Z,1047
2023-03-11T06:39:07.914Z,927
2023-03-11T06:42:07.930Z,790
2023-03-11T06:45:07.842Z,850
2023-03-11T06:48:07.844Z,1290
2023-03-11T06:51:07.850Z,1603
2023-03-11T06:54:07.903Z,1610
2023-03-11T06:57:07.863Z,1757
2023-03-11T07:00:07.984Z,2000
2023-03-11T07:03:07.979Z,1893
2023-03-11T07:06:10.954Z,1787
2023-03-11T07:09:07.989Z,2117
2023-03-11T07:12:10.155Z,1707
2023-03-11T07:15:07.844Z,1280
2023-03-11T07:18:07.790Z,1680
2023-03-11T07:21:07.903Z,1670
2023-03-11T07:24:08.021Z,1353
2023-03-11T07:27:07.968Z,1190
2023-03-11T07:30:08.568Z,1173
2023-03-11T07:33:07.966Z,1243
2023-03-11T07:36:08.247Z,1337
2023-03-11T07:39:11.012Z,1213
2023-03-11T07:42:08.147Z,1230
2023-03-11T07:45:07.829Z,1480
2023-03-11T07:48:07.901Z,1450
2023-03-11T07:51:07.829Z,1603
2023-03-11T07:54:07.841Z,1853
2023-03-11T07:57:07.965Z,1977
2023-03-11T08:00:08.342Z,1807
2023-03-11T08:03:07.818Z,2297
2023-03-11T08:06:07.940Z,2097
2023-03-11T08:09:08.106Z,2773
2023-03-11T08:12:07.923Z,2867
2023-03-11T08:15:08.083Z,3067
2023-03-11T08:18:09.455Z,3240
2023-03-11T08:21:07.834Z,2833
2023-03-11T08:24:10.614Z,3680
2023-03-11T08:27:07.900Z,4010
2023-03-11T08:30:08.010Z,4143
2023-03-11T08:33:07.907Z,4047
2023-03-11T08:36:08.910Z,4627
2023-03-11T08:39:08.340Z,4687
2023-03-11T08:42:08.164Z,4517
2023-03-11T08:45:07.942Z,4517
2023-03-11T08:48:07.947Z,3773
2023-03-11T08:51:07.852Z,3613
2023-03-11T08:54:07.882Z,4303
2023-03-11T08:57:07.813Z,4947
2023-03-11T09:00:07.937Z,5430
2023-03-11T09:03:08.327Z,5683
2023-03-11T09:06:08.415Z,5960
2023-03-11T09:09:08.092Z,5760
2023-03-11T09:12:07.887Z,5817
2023-03-11T09:15:08.072Z,5303
2023-03-11T09:18:07.872Z,5150
2023-03-11T09:21:07.843Z,5943
2023-03-11T09:24:07.839Z,5470
2023-03-11T09:27:07.939Z,5173
2023-03-11T09:30:07.976Z,5340
2023-03-11T09:33:07.903Z,6817
2023-03-11T09:36:08.157Z,7747
2023-03-11T09:39:07.830Z,7413
2023-03-11T09:42:08.172Z,19013
2023-03-11T09:45:08.004Z,11157
2023-03-11T09:48:08.135Z,10000
2023-03-11T09:51:07.934Z,25380
2023-03-11T09:54:08.099Z,14860
2023-03-11T09:57:08.034Z,16703
2023-03-11T10:00:08.095Z,8443
2023-03-11T10:03:08.284Z,12200
2023-03-11T10:06:08.245Z,38403
2023-03-11T10:09:07.874Z,53790
2023-03-11T10:12:07.961Z,18720
2023-03-11T10:15:07.962Z,41867
2023-03-11T10:18:07.929Z,14513
2023-03-11T10:21:07.863Z,56963
2023-03-11T10:24:07.772Z,60563
2023-03-11T10:27:07.972Z,59047
2023-03-11T10:30:07.855Z,25833
2023-03-11T10:33:07.881Z,18913
2023-03-11T10:36:08.399Z,20773
2023-03-11T10:39:07.863Z,52057
2023-03-11T10:42:07.891Z,43500
2023-03-11T10:45:08.026Z,47323
2023-03-11T10:48:07.871Z,48610
2023-03-11T10:51:07.942Z,38987
2023-03-11T10:54:08.027Z,48443
2023-03-11T10:57:07.842Z,52077
2023-03-11T11:00:07.980Z,45683
2023-03-11T11:03:07.904Z,49180
2023-03-11T11:06:08.066Z,47467
2023-03-11T11:09:07.957Z,52113
2023-03-11T11:12:08.419Z,59377
2023-03-11T11:15:07.866Z,22623
2023-03-11T11:18:08.138Z,27063
2023-03-11T11:21:07.970Z,40563
2023-03-11T11:24:07.963Z,18770
2023-03-11T11:27:07.850Z,15193
2023-03-11T11:30:07.939Z,49550
2023-03-11T11:33:07.864Z,53257
2023-03-11T11:36:07.961Z,17143
2023-03-11T11:39:07.875Z,13977
2023-03-11T11:42:07.947Z,52627
2023-03-11T11:45:08.102Z,50343
2023-03-11T11:48:07.914Z,50710
2023-03-11T11:51:07.887Z,11500
2023-03-11T11:54:07.981Z,11200
2023-03-11T11:57:07.971Z,13410
2023-03-11T12:00:08.612Z,17800
2023-03-11T12:03:07.926Z,14787
2023-03-11T12:06:08.045Z,21750
2023-03-11T12:09:07.954Z,59077
2023-03-11T12:12:07.834Z,14890
2023-03-11T12:15:08.287Z,20387
2023-03-11T12:18:07.820Z,12490
2023-03-11T12:21:07.822Z,12110
2023-03-11T12:24:07.995Z,53650
2023-03-11T12:27:07.817Z,14123
2023-03-11T12:30:07.990Z,45453
2023-03-11T12:33:08.057Z,10303
2023-03-11T12:36:08.276Z,12373
2023-03-11T12:39:08.022Z,48253
2023-03-11T12:42:07.957Z,18933
2023-03-11T12:45:07.988Z,31913
2023-03-11T12:48:07.810Z,51793
2023-03-11T12:51:07.880Z,52560
2023-03-11T12:54:07.849Z,45757
2023-03-11T12:57:07.810Z,17357
2023-03-11T13:00:07.982Z,46503
2023-03-11T13:03:08.370Z,48120
2023-03-11T13:06:08.112Z,13993
2023-03-11T13:09:07.883Z,43993
2023-03-11T13:12:07.836Z,45013
2023-03-11T13:15:09.427Z,42593
2023-03-11T13:18:07.958Z,45447
2023-03-11T13:21:07.886Z,36910
2023-03-11T13:24:07.840Z,40577
2023-03-11T13:27:11.493Z,41817
2023-03-11T13:30:08.036Z,42587
2023-03-11T13:33:08.050Z,12347
2023-03-11T13:36:08.242Z,42640
2023-03-11T13:39:07.896Z,32700
2023-03-11T13:42:07.886Z,41540
2023-03-11T13:45:08.073Z,43947
2023-03-11T13:48:07.974Z,43060
2023-03-11T13:51:07.995Z,10167
2023-03-11T13:54:07.845Z,9633
2023-03-11T13:57:07.799Z,40320
2023-03-11T14:00:07.992Z,11457
2023-03-11T14:03:08.120Z,7400
2023-03-11T14:06:07.862Z,10010
2023-03-11T14:09:07.884Z,38980
2023-03-11T14:12:08.012Z,35527
2023-03-11T14:15:08.037Z,32990
2023-03-11T14:18:07.869Z,36977
2023-03-11T14:21:07.876Z,37590
2023-03-11T14:24:07.834Z,38090
2023-03-11T14:27:07.996Z,32900
2023-03-11T14:30:07.914Z,16773
2023-03-11T14:33:07.803Z,32007
2023-03-11T14:36:08.083Z,32990
2023-03-11T14:39:07.962Z,31943
2023-03-11T14:42:07.870Z,31083
2023-03-11T14:45:07.938Z,8147
2023-03-11T14:48:07.886Z,9680
2023-03-11T14:51:07.815Z,29307
2023-03-11T14:54:07.885Z,6830
2023-03-11T14:57:07.887Z,5813
2023-03-11T15:00:08.012Z,25993
2023-03-11T15:03:08.164Z,23960
2023-03-11T15:06:07.918Z,22060
2023-03-11T15:09:07.843Z,19650
2023-03-11T15:12:07.849Z,22627
2023-03-11T15:15:07.891Z,21220
2023-03-11T15:18:08.004Z,18837
2023-03-11T15:21:08.022Z,19170
2023-03-11T15:24:07.847Z,17820
2023-03-11T15:27:08.024Z,13850
2023-03-11T15:30:08.037Z,10910
2023-03-11T15:33:07.953Z,6743
2023-03-11T15:36:08.143Z,19800
2023-03-11T15:39:08.672Z,18330
2023-03-11T15:42:07.907Z,12830
2023-03-11T15:45:07.950Z,15873
2023-03-11T15:48:07.838Z,15537
2023-03-11T15:51:07.942Z,15053
2023-03-11T15:54:07.796Z,14487
2023-03-11T15:57:07.760Z,13867
2023-03-11T16:00:07.884Z,11400
2023-03-11T16:03:07.800Z,10670
2023-03-11T16:06:07.892Z,10527
2023-03-11T16:09:07.820Z,8633
2023-03-11T16:12:07.855Z,6223
2023-03-11T16:15:07.892Z,7227
2023-03-11T16:18:07.868Z,7320
2023-03-11T16:21:07.842Z,7903
2023-03-11T16:24:07.950Z,7467
2023-03-11T16:27:07.836Z,7407
2023-03-11T16:30:07.903Z,7180
2023-03-11T16:33:11.938Z,6513
2023-03-11T16:36:08.247Z,5920
2023-03-11T16:39:10.444Z,5353
2023-03-11T16:42:07.867Z,3680
2023-03-11T16:45:10.892Z,4140
2023-03-11T16:48:07.815Z,3593
2023-03-11T16:51:07.822Z,2887
2023-03-11T16:54:07.816Z,1433
2023-03-11T16:57:07.891Z,1013
2023-03-11T17:00:07.837Z,823
2023-03-11T17:03:07.882Z,677
2023-03-11T17:06:07.892Z,540
2023-03-11T17:09:07.821Z,430
2023-03-11T17:12:08.380Z,350
2023-03-11T17:15:07.817Z,277
2023-03-11T17:18:07.774Z,213
2023-03-11T17:21:07.686Z,150
2023-03-11T17:24:07.801Z,100
2023-03-11T17:27:07.741Z,67
2023-03-11T17:30:07.935Z,43
2023-03-11T17:33:08.043Z,23
2023-03-11T17:36:08.034Z,13
2023-03-11T17:39:07.759Z,7
2023-03-11T17:42:07.877Z,3
2023-03-11T17:45:07.735Z,3
2023-03-11T17:48:07.774Z,0
2023-03-11T17:51:07.775Z,0
2023-03-11T17:54:07.716Z,0
2023-03-11T17:57:07.770Z,0
2023-03-11T18:00:07.807Z,0
2023-03-11T18:03:07.797Z,0
2023-03-11T18:06:07.873Z,0
2023-03-11T18:09:07.773Z,0
2023-03-11T18:12:07.788Z,0
2023-03-11T18:15:07.886Z,0
2023-03-11T18:18:07.793Z,0
2023-03-11T18:21:07.822Z,0
2023-03-11T18:24:07.807Z,0
2023-03-11T18:27:07.758Z,0
2023-03-11T18:30:07.855Z,0
2023-03-11T18:33:07.815Z,0
2023-03-11T18:36:07.894Z,0
2023-03-11T18:39:07.818Z,0
2023-03-11T18:42:07.771Z,0
2023-03-11T18:45:07.715Z,0
2023-03-11T18:48:07.729Z,0
2023-03-11T18:51:07.814Z,0
2023-03-11T18:54:07.783Z,0
2023-03-11T18:57:07.749Z,0
2023-03-11T19:00:08.064Z,0
2023-03-11T19:03:07.793Z,0
2023-03-11T19:06:07.867Z,0
2023-03-11T19:09:07.729Z,0
2023-03-11T19:12:07.775Z,0
2023-03-11T19:15:07.894Z,0
2023-03-11T19:18:14.210Z,0
2023-03-11T19:21:07.812Z,0
2023-03-11T19:24:07.829Z,0
2023-03-11T19:27:07.779Z,0
2023-03-11T19:30:07.858Z,0
2023-03-11T19:33:07.782Z,0
2023-03-11T19:36:08.175Z,0
2023-03-11T19:39:07.835Z,0
2023-03-11T19:42:07.798Z,0
2023-03-11T19:45:07.815Z,0
2023-03-11T19:48:07.865Z,0
2023-03-11T19:51:07.925Z,0
2023-03-11T19:54:07.847Z,0
2023-03-11T19:57:07.852Z,0
2023-03-11T20:00:07.816Z,0
2023-03-11T20:03:07.940Z,0
2023-03-11T20:06:08.375Z,0
2023-03-11T20:09:08.054Z,0
2023-03-11T20:12:07.929Z,0
2023-03-11T20:15:07.839Z,0
2023-03-11T20:18:08.125Z,0
2023-03-11T20:21:07.839Z,0
2023-03-11T20:24:08.014Z,0
2023-03-11T20:27:07.930Z,0
2023-03-11T20:30:07.949Z,0
2023-03-11T20:33:08.364Z,0
2023-03-11T20:36:08.253Z,0
2023-03-11T20:39:10.920Z,0
2023-03-11T20:42:07.967Z,0
2023-03-11T20:45:08.065Z,0
2023-03-11T20:48:08.133Z,0
2023-03-11T20:51:08.195Z,0
2023-03-11T20:54:07.876Z,0
2023-03-11T20:57:08.040Z,0
2023-03-11T21:00:08.135Z,0
2023-03-11T21:03:08.286Z,0
2023-03-11T21:06:08.096Z,0
2023-03-11T21:09:08.069Z,0
2023-03-11T21:12:08.096Z,0
2023-03-11T21:15:08.052Z,0
2023-03-11T21:18:08.041Z,0
2023-03-11T21:21:08.096Z,0
2023-03-11T21:24:08.207Z,0
2023-03-11T21:27:08.189Z,0
2023-03-11T21:30:08.132Z,0
2023-03-11T21:33:08.299Z,0
2023-03-11T21:36:08.310Z,0
2023-03-11T21:39:10.706Z,0
2023-03-11T21:42:07.987Z,0
2023-03-11T21:45:08.374Z,0
2023-03-11T21:48:08.141Z,0
2023-03-11T21:51:08.205Z,0
2023-03-11T21:54:08.386Z,0
2023-03-11T21:57:07.930Z,0
2023-03-11T22:00:08.241Z,0
2023-03-11T22:03:08.102Z,0
2023-03-11T22:06:08.148Z,0
2023-03-11T22:09:08.176Z,0
2023-03-11T22:12:08.592Z,0
2023-03-11T22:15:08.318Z,0
2023-03-11T22:18:08.178Z,0
2023-03-11T22:21:10.324Z,0
2023-03-11T22:24:07.808Z,0
2023-03-11T22:27:07.837Z,0
2023-03-11T22:30:07.746Z,0
2023-03-11T22:33:07.873Z,0
2023-03-11T22:36:08.082Z,0
2023-03-11T22:39:07.947Z,0
2023-03-11T22:42:07.778Z,0
2023-03-11T22:45:07.783Z,0
2023-03-11T22:48:07.789Z,0
2023-03-11T22:51:07.802Z,0
2023-03-11T22:54:07.855Z,0
2023-03-11T22:57:07.745Z,0
2023-03-11T23:00:08.757Z,0
2023-03-11T23:03:08.161Z,0
2023-03-11T23:06:07.990Z,0
2023-03-11T23:09:07.735Z,0
2023-03-11T23:12:07.825Z,0
2023-03-11T23:15:07.762Z,0
2023-03-11T23:18:07.788Z,0
2023-03-11T23:21:07.739Z,0
2023-03-11T23:24:07.807Z,0
2023-03-11T23:27:07.751Z,0
2023-03-11T23:30:07.749Z,0
2023-03-11T23:33:08.075Z,0
2023-03-11T23:36:08.153Z,0
2023-03-11T23:39:07.763Z,0
2023-03-11T23:42:29.967Z,0
2023-03-11T23:45:07.796Z,0
2023-03-11T23:48:07.780Z,0
2023-03-11T23:51:07.748Z,0
2023-03-11T23:54:07.778Z,0
2023-03-11T23:57:07.805Z,0
